Our Location

356 (Felixstowe) Squadron SHQ,
Carr Road,
Felixstowe,
IP11 3RX

Tel: 01394 673419 Mon/Wed Evenings

email: This email address is being protected from spambots. You need JavaScript enabled to view it.

Air Cadet Magazine

Fx Cdt Futurepilot B&W

Absence Form

Cdt Hawk Pilot

Aviation Weather - Wattisham

[source: ADDS]
METAR
EGUW 262050Z 10006KT 4000 BR SCT007 13/13 Q1023 GRN TEMPO SCT006 YLO1 =
TAF
TAF AMD EGUW 262044Z 2621/2624 09006KT 4500 BR FEW006 TEMPO 2621/2624 BKN005 PROB30 2622/2624 3000 BR =
You are here: Home